• Join FlightAware (Why Join?)
  • Login
  • US Flag 
06:14AM EDT


 

Airport Tracker/Info


-or-


 

Live Flight TrackerFlight Track Log ✈ CCA4492 ✈ 26-Oct-2013 ✈ ZUJZ / JZH - ZUUU / CTU

Flight Track Log - Related Links

Times and Time Zones

All times are in EDT time to prevent confusion due to time zone crossing. See the CCA4492 flight status page for this flight to view local times or setup timezone preferences in your user account.

Time Position Orientation Groundspeed Altitude Reporting Facility
EDT Latitude Longitude Course Direction KTS MPH feet Rate Location/Type
07:55AM 32.6135 103.7119 174° South  Level Estimated
07:56AM 32.5323 103.7215 174° South  Level Estimated
07:57AM 32.4511 103.7310 174° South  Level Estimated
07:58AM 32.3699 103.7406 174° South  Level Estimated
07:59AM 32.2887 103.7501 174° South  Level Estimated
08:00AM 32.2076 103.7596 174° South  Level Estimated
08:01AM 32.1264 103.7691 174° South  Level Estimated
08:02AM 32.0452 103.7786 174° South  Level Estimated
08:02AM 32.5490 104.1580 174° South 468 539 26,600  Level FlightAware
08:03AM 31.9640 103.7881 174° South  Level Estimated
08:03AM 32.4670 104.1710 172° South 469 540 26,600  Level FlightAware
08:03AM 32.3730 104.1860 172° South 473 544 26,600  Level FlightAware
08:04AM 32.2900 104.1990 172° South 475 547 26,600  Level FlightAware
08:05AM 32.2170 104.2110 172° South 478 550 26,600  Level FlightAware
08:05AM 32.1300 104.2240 173° South 479 551 26,600  Level FlightAware
08:06AM 31.9890 104.2470 172° South 479 551 26,600 -120 Level FlightAware
08:07AM 31.9240 104.2570 173° South 475 547 26,500 -660 Descending FlightAware
08:07AM 31.8470 104.2690 172° South 468 539 25,900 -1,020 Descending FlightAware
08:08AM 31.7520 104.2840 172° South 462 532 25,200 -960 Descending FlightAware
08:09AM 31.6680 104.2980 172° South 459 528 24,600 -1,020 Descending FlightAware
08:09AM 31.5880 104.3100 173° South 453 521 23,900 -1,140 Descending FlightAware
08:10AM 31.5300 104.3170 174° South 442 509 23,400 -1,020 Descending FlightAware
08:11AM 31.4650 104.2990 193° South 420 483 22,900 -540 Descending FlightAware
08:11AM 31.3740 104.2310 213° Southwest 420 483 22,600 -420 Descending FlightAware
08:12AM 31.3080 104.1820 212° Southwest 422 486 22,300 -1,020 Descending FlightAware
08:13AM 31.2590 104.1440 214° Southwest 420 483 21,400 -1,980 Descending FlightAware
08:13AM 31.1930 104.0950 212° Southwest 419 482 20,000 -2,100 Descending FlightAware
08:14AM 31.1190 104.0400 212° Southwest 406 467 18,500 -1,980 Descending FlightAware
08:15AM 31.0640 103.9980 213° Southwest 402 463 17,300 -2,040 Descending FlightAware
08:15AM 30.9920 103.9440 213° Southwest 392 451 15,800 -2,040 Descending FlightAware
08:16AM 30.9370 103.9030 213° Southwest 379 436 14,600 -2,040 Descending FlightAware
08:17AM 30.8910 103.8680 213° Southwest 368 423 13,500 -2,040 Descending FlightAware
08:17AM 30.8510 103.8380 213° Southwest 357 411 12,600 -1,920 Descending FlightAware
08:18AM 30.7860 103.7900 212° Southwest 343 395 11,100 -1,500 Descending FlightAware
08:18AM 30.7450 103.7590 213° Southwest 316 364 10,600 -1,200 Descending FlightAware
08:19AM 30.6700 103.7040 212° Southwest 295 339 9,200 -1,500 Descending FlightAware
08:20AM 30.6190 103.7010 183° South 286 329 8,100 -1,560 Descending FlightAware
08:21AM 30.5590 103.7290 158° South 280 322 6,900 -1,260 Descending FlightAware
08:22AM 30.5070 103.7530 158° South 256 295 6,200 -840 Descending FlightAware
08:22AM 30.4680 103.7710 158° South 237 273 5,800 -780 Descending FlightAware
08:23AM 30.4310 103.7640 189° South 231 266 5,300 -900 Descending FlightAware
08:23AM 30.3980 103.7510 199° South 219 252 4,800 -420 Descending FlightAware
08:24AM 30.3700 103.7840 135° Southeast 197 227 4,800 -120 Level FlightAware
08:25AM 30.3630 103.8060 110° East 172 198 4,700  Descending FlightAware
08:25AM 30.3710 103.8470 77° East 141 162 4,800 -120 Climbing FlightAware
08:26AM 30.3860 103.8740 57° Northeast 150 173 4,600 -840 Descending FlightAware
08:27AM 30.4080 103.8850 23° Northeast 161 185 3,800 -1,140 Descending FlightAware
08:27AM 30.4290 103.8950 22° Northeast 152 175 3,400 -720 Descending FlightAware
08:28AM 30.4560 103.9070 21° North 131 151 2,900 -780 Descending FlightAware
08:29AM 30.4770 103.9170 22° Northeast 129 148 2,400 -720 Descending FlightAware
08:29AM 30.4940 103.9250 22° Northeast 129 148 2,100 -660 Descending FlightAware
08:30AM 30.5150 103.9350 22° Northeast 133 153 1,700 -660 Descending FlightAware
08:30AM 30.5210 103.9370 16° North 131 151 1,600 -180 Descending FlightAware
08:30AM 30.5330 103.9430 23° Northeast 131 151 1,600  Level FlightAware